默认 日期 大小 文件数 浏览量 最新下载 xml
savant磁力链接相关资源由用户搜索指令自动获取,结果来源于网络,本站不存储任何资料,亦不承担任何责任,请于24小时内删除,搜索到361个磁力,用时0ms。
    {"Born on a Blue Day Unabridged.mp3": 381991074, "Torrent downloaded from Demonoid.com.txt": 47}
创建时间: 2018-12-19 00:13:27 大小:364.3 MB 文件数量:2 热度:7 最近下载:2025-02-19 23:37:02
    ... (Original Mix).mp3": 9760015, "03.Savant & Twistex - Dream of You (Original ...
创建时间: 2018-12-19 00:22:06 大小:68.55 MB 文件数量:6 热度:7 最近下载:2025-09-30 04:30:01
    {"PV07.mkv": 42295158, "Vol 5.mkv": 53985742, "[ReinForce] Kubikiri Cycle ~Aoiro Savant to Zaregoto Tsukai~ 05 (BDRip 1920x1080 x264 FLAC).mkv": 1842159468}
创建时间: 2018-12-19 01:49:14 大小:1.81 GB 文件数量:3 热度:7 最近下载:2024-10-12 23:07:01
    {"Cover.jpg": 128128, "11. Colonizer.mp3": 8851626, "06. The Gray Man.mp3": 9386615, "01. Serial Killer.mp3": 14816951, "08. Reaper of Pain.mp3": 12526536, "09. Molested Whore.mp3": 11258030, "02. Eyes of Butcher.mp3": 10004153, "03. Third Antichrist.mp3": ...
创建时间: 2018-12-19 01:50:20 大小:113.08 MB 文件数量:13 热度:7 最近下载:2022-04-23 06:12:21
    {"Savant [Alchemist] [FLAC] [CodeTempest]": {"[ART]": {"front. ... [feat. Svanur Papparazzi].flac": 44105642, "Savant [Alchemist] [2012] [FLAC] [CodeTempest] [DESCIPTION ...
创建时间: 2018-12-19 03:12:43 大小:775.19 MB 文件数量:27 热度:6 最近下载:2022-04-23 05:55:50
    {"scans": {"Obi.png": 2391515, "Disc 1.jpg": 626227, "Disc 2.jpg": 594993, "Jacket Inner.png": 6494643, "Jacket Outer.png": 6867925, "Booklet 01-02.png": 9666412, "Booklet 5 + 6.png": 12550198, "Booklet 03 + 04.png": 10683305, "Booklet 07 + 08.png": ...
创建时间: 2018-12-19 04:30:04 大小:517.5 MB 文件数量:49 热度:9 最近下载:2025-03-15 00:55:02
    {"[RH] Kubikiri Cycle Aoiro Savant to Zaregotozukai - 06 [6B904125].mkv": 631345647}
创建时间: 2018-12-19 04:52:13 大小:602.1 MB 文件数量:1 热度:6 最近下载:2022-04-23 05:45:29
    ... txt": 651, "Buttman Anal Savant (Evil Angel) 2016 XXX ( ... 1).mp4": 1159485875, "Buttman Anal Savant (Evil Angel) 2016 XXX (2 ... ).mp4": 1308710052, "Buttman Anal Savant (Evil Angel) 2016 XXX (3 ... ).mp4": 1054704045, "Buttman Anal Savant (Evil Angel) 2016 XXX (4 ...
创建时间: 2018-12-19 05:55:24 大小:4.37 GB 文件数量:9 热度:13 最近下载:2024-07-29 03:56:01
    {"1.jpg": 404075, "front.jpg": 114211, "RARBG.to.nfo": 32, "buttman.anal.savant.disc1.xxx.dvdrip.x264-sexcat.mp4": 2073151254, "buttman.anal.savant.disc1.xxx.dvdrip.x264-sexcat.nfo": 7235}
创建时间: 2018-12-19 07:26:18 大小:1.93 GB 文件数量:5 热度:11 最近下载:2025-09-30 03:28:02
    ... }, "[Moozzi2] Kubikiri Cycle Aoiro Savant to Zaregoto Tsukai - OVA ... "[Moozzi2] Kubikiri Cycle Aoiro Savant to Zaregoto Tsukai - 02 ... "[Moozzi2] Kubikiri Cycle Aoiro Savant to Zaregoto Tsukai - 03 ... "[Moozzi2] Kubikiri Cycle Aoiro Savant to Zaregoto Tsukai - 04 ...
创建时间: 2018-12-19 23:30:22 大小:13.71 GB 文件数量:37 热度:12 最近下载:2025-02-13 08:18:01
    ... cover.jpg": 3029178, "Savant - Invasion - 12 1997.mp3": 18174075, "Savant - Invasion - 01 ... 07 Pixel Bee.mp3": 13327082, "Savant - Invasion - 08 Innocence.mp3": ... Pizza Power Alien.mp3": 8115711, "Savant - Invasion - 15 Problematimaticalulatorture.mp3": ...
创建时间: 2018-12-20 04:57:27 大小:196.46 MB 文件数量:19 热度:8 最近下载:2025-09-29 16:30:02
    ... ": 2352686660, "[TnS] Kubikiri Cycle - Aoiro Savant to Zaregototsukai - 01v2 [BD 1080p ... ": 1717347826, "[TnS] Kubikiri Cycle - Aoiro Savant to Zaregototsukai - 02v2 [BD 1080p ... 1139156711, "[TnS] Kubikiri Cycle - Aoiro Savant to Zaregototsukai - 03v2 [BD 1080p ...
创建时间: 2018-12-20 07:12:24 大小:12.07 GB 文件数量:8 热度:7 最近下载:2024-12-04 18:20:04
    {"Cover.jpg": 9046557, "05. Rex.mp3": 9981358, "08. Cake.mp3": 10199744, "12. Horde.mp3": 8183095, "13. Sweet.mp3": 18271585, "03. Jester.mp3": 10840270, "06. Legend.mp3": 9654311, "07. Ritual.mp3": 10469332, "11. Tricks.mp3": 8282362, "02. Villain.mp3": ...
创建时间: 2018-12-20 12:54:23 大小:154.44 MB 文件数量:15 热度:7 最近下载:2022-04-23 06:25:24
    ... ": {"[Beatrice-Raws] Kubikiri Cycle - Aoiro Savant to Zaregotozukai OVA (Creditless ED1 ... , "[Beatrice-Raws] Kubikiri Cycle - Aoiro Savant to Zaregotozukai OVA (Creditless OP1 ... ": {"[Beatrice-Raws] Kubikiri Cycle - Aoiro Savant to Zaregotozukai OVA 01 [BDRip ...
创建时间: 2018-12-20 23:31:09 大小:25 GB 文件数量:60 热度:11 最近下载:2025-01-14 15:47:06
    {"Kubikiri_Cycle_-_Aoiro_Savant_to_Zaregototsukai_[01]_[AniLibria_TV]_[BD-Rip_720p].mkv": 740436267}
创建时间: 2018-12-20 23:47:32 大小:706.14 MB 文件数量:1 热度:7 最近下载:2025-09-30 06:24:01
    ... 1172012423, "[RH] Kubikiri Cycle Aoiro Savant to Zaregotozukai - 01v2 [9908D8C7].mkv ... 1123423510, "[RH] Kubikiri Cycle Aoiro Savant to Zaregotozukai - 02v2 [EBA33FF7].mkv ... 1164801873, "[RH] Kubikiri Cycle Aoiro Savant to Zaregotozukai - 04v2 [B43EE289].mkv ...
创建时间: 2018-12-21 00:36:28 大小:4.77 GB 文件数量:7 热度:7 最近下载:2025-03-11 19:52:03
    {"buttman.anal.savant.disc2.xxx.dvdrip.x264-sexcat.mp4": 2005988201}
创建时间: 2018-12-21 13:50:45 大小:1.87 GB 文件数量:1 热度:9 最近下载:2022-04-23 06:53:00
    ... ]_Kubikiri Cycle - Aoiro Savant to Zaregototsukai_OVA 01 [BD ... Fansub]_Kubikiri Cycle - Aoiro Savant to Zaregototsukai_OVA 02 [BD ... Fansub]_Kubikiri Cycle - Aoiro Savant to Zaregototsukai_OVA 03 [BD ... ]_Kubikiri Cycle - Aoiro Savant to Zaregototsukai_OVA 04 [BD ...
创建时间: 2018-12-21 14:51:20 大小:3.9 GB 文件数量:8 热度:8 最近下载:2025-09-30 06:02:15
    {"folder.jpg": 100307, "16-Zion Original Mix.mp3": 13212352, "13-Mecca Original Mix.mp3": 13863327, "10-Shazam Original Mix.mp3": 10509209, "11-Spider Original Mix.mp3": 10202009, "02-Arrival Original Mix.mp3": 14006485, "04-Crusade Original Mix.mp3": ...
创建时间: 2018-12-21 21:10:16 大小:184.74 MB 文件数量:17 热度:6 最近下载:2022-04-23 06:45:36
    ... 2524112533, "[UCCUSS] Kubikiri Cycle Aoiro Savant to Zaregotozukai クビキ ... , "[UCCUSS] Kubikiri Cycle Aoiro Savant to Zaregotozukai クビキ ... , "[UCCUSS] Kubikiri Cycle Aoiro Savant to Zaregotozukai クビキ ... , "[UCCUSS] Kubikiri Cycle Aoiro Savant to Zaregotozukai クビキ ...
创建时间: 2018-12-21 21:30:21 大小:24.87 GB 文件数量:8 热度:21 最近下载:2025-09-17 11:33:03